HAZ118 VHHH-RJTT
Flight info
| Callsign | HAZ118 |
|---|---|
| Flight time | 4h 18m |
| Altitude | 41000 |
| Route | DALOL V631 ENVAR M750 BILLY Y21 AKSEL |
| Aircraft | A359/H-SDE2E3GHIJ3J4J5LM1ORWXY/LB1D1 |
Departure
| Time | 2026-05-07 18:43 |
|---|---|
| Airport | Hong Kong International Airport (VHHH) |
Arrival
| Time | 2026-05-07 23:01 |
|---|---|
| Airport | Tokyo Haneda International Airport (RJTT) |
| Time | Latitude | Longitude | Altitude | Speed | Heading |
|---|---|---|---|---|---|
| 2026-05-07 18:19 | 22.31384 | 113.92403 | 43 ft | 0 kts | 26° |
| 2026-05-07 18:32 | 22.31373 | 113.92397 | 40 ft | 2 kts | 24° |
| 2026-05-07 18:32 | 22.31357 | 113.92390 | 40 ft | 2 kts | 21° |
| 2026-05-07 18:33 | 22.31342 | 113.92384 | 41 ft | 2 kts | 17° |
| 2026-05-07 18:33 | 22.31326 | 113.92380 | 40 ft | 2 kts | 6° |
| 2026-05-07 18:33 | 22.31309 | 113.92381 | 42 ft | 2 kts | 333° |
| 2026-05-07 18:33 | 22.31298 | 113.92392 | 41 ft | 1 kts | 298° |
| 2026-05-07 18:34 | 22.31296 | 113.92396 | 41 ft | 0 kts | 296° |
| 2026-05-07 18:34 | 22.31297 | 113.92395 | 41 ft | 1 kts | 296° |
| 2026-05-07 18:35 | 22.31310 | 113.92367 | 39 ft | 8 kts | 296° |
| 2026-05-07 18:35 | 22.31348 | 113.92280 | 43 ft | 17 kts | 295° |
| 2026-05-07 18:35 | 22.31407 | 113.92148 | 43 ft | 21 kts | 297° |
| 2026-05-07 18:35 | 22.31511 | 113.92062 | 43 ft | 21 kts | 341° |
| 2026-05-07 18:36 | 22.31610 | 113.91992 | 43 ft | 16 kts | 281° |
| 2026-05-07 18:36 | 22.31579 | 113.91864 | 43 ft | 20 kts | 252° |
| 2026-05-07 18:36 | 22.31530 | 113.91714 | 43 ft | 23 kts | 251° |
| 2026-05-07 18:36 | 22.31477 | 113.91544 | 44 ft | 26 kts | 251° |
| 2026-05-07 18:37 | 22.31414 | 113.91351 | 44 ft | 28 kts | 250° |
| 2026-05-07 18:37 | 22.31345 | 113.91142 | 44 ft | 31 kts | 251° |
| 2026-05-07 18:37 | 22.31272 | 113.90917 | 44 ft | 33 kts | 250° |
| 2026-05-07 18:37 | 22.31195 | 113.90676 | 43 ft | 34 kts | 251° |
| 2026-05-07 18:38 | 22.31115 | 113.90426 | 43 ft | 36 kts | 251° |
| 2026-05-07 18:38 | 22.31034 | 113.90174 | 43 ft | 23 kts | 250° |
| 2026-05-07 18:38 | 22.30981 | 113.90015 | 43 ft | 24 kts | 250° |
| 2026-05-07 18:38 | 22.30949 | 113.89912 | 43 ft | 0 kts | 251° |
| 2026-05-07 18:39 | 22.30939 | 113.89882 | 43 ft | 9 kts | 250° |
| 2026-05-07 18:39 | 22.30951 | 113.89815 | 43 ft | 7 kts | 316° |
| 2026-05-07 18:39 | 22.30954 | 113.89812 | 43 ft | 0 kts | 320° |
| 2026-05-07 18:39 | 22.30961 | 113.89806 | 41 ft | 3 kts | 323° |
| 2026-05-07 18:40 | 22.31007 | 113.89787 | 43 ft | 12 kts | 340° |
| 2026-05-07 18:40 | 22.31087 | 113.89792 | 43 ft | 13 kts | 51° |
| 2026-05-07 18:40 | 22.31111 | 113.89849 | 43 ft | 0 kts | 71° |
| 2026-05-07 18:42 | 22.31136 | 113.89923 | 43 ft | 43 kts | 69° |
| 2026-05-07 18:42 | 22.31331 | 113.90533 | 41 ft | 126 kts | 71° |
| 2026-05-07 18:42 | 22.31696 | 113.91659 | 156 ft | 184 kts | 70° |
| 2026-05-07 18:43 | 22.32152 | 113.92994 | 990 ft | 189 kts | 68° |
| 2026-05-07 18:43 | 22.32650 | 113.94332 | 1929 ft | 199 kts | 69° |
| 2026-05-07 18:43 | 22.33128 | 113.95780 | 2437 ft | 211 kts | 71° |
| 2026-05-07 18:43 | 22.33514 | 113.97343 | 3134 ft | 219 kts | 78° |
| 2026-05-07 18:44 | 22.33787 | 113.98968 | 3984 ft | 221 kts | 81° |
| 2026-05-07 18:44 | 22.33873 | 114.00630 | 4878 ft | 222 kts | 94° |
| 2026-05-07 18:44 | 22.33521 | 114.02262 | 5715 ft | 226 kts | 112° |
| 2026-05-07 18:44 | 22.32663 | 114.03738 | 6362 ft | 240 kts | 133° |
| 2026-05-07 18:45 | 22.31339 | 114.04878 | 7115 ft | 246 kts | 148° |
| 2026-05-07 18:45 | 22.29863 | 114.05840 | 8002 ft | 250 kts | 150° |
| 2026-05-07 18:45 | 22.28349 | 114.06795 | 8925 ft | 255 kts | 150° |
| 2026-05-07 18:45 | 22.26808 | 114.07775 | 9854 ft | 259 kts | 150° |
| 2026-05-07 18:46 | 22.25159 | 114.08582 | 10662 ft | 262 kts | 167° |
| 2026-05-07 18:46 | 22.23342 | 114.08799 | 11437 ft | 268 kts | 180° |
| 2026-05-07 18:46 | 22.21423 | 114.08797 | 11852 ft | 291 kts | 182° |
| 2026-05-07 18:46 | 22.19317 | 114.08777 | 12242 ft | 315 kts | 180° |
| 2026-05-07 18:47 | 22.17086 | 114.09245 | 12596 ft | 341 kts | 159° |
| 2026-05-07 18:47 | 22.15091 | 114.10744 | 13056 ft | 361 kts | 134° |
| 2026-05-07 18:47 | 22.13703 | 114.13045 | 13712 ft | 371 kts | 117° |
| 2026-05-07 18:47 | 22.12590 | 114.15580 | 14325 ft | 377 kts | 115° |
| 2026-05-07 18:48 | 22.11467 | 114.18163 | 14970 ft | 382 kts | 116° |
| 2026-05-07 18:48 | 22.10302 | 114.20756 | 15624 ft | 386 kts | 117° |
| 2026-05-07 18:48 | 22.09098 | 114.23363 | 16265 ft | 391 kts | 117° |
| 2026-05-07 18:48 | 22.07676 | 114.25870 | 16870 ft | 394 kts | 129° |
| 2026-05-07 18:49 | 22.05700 | 114.27906 | 17524 ft | 395 kts | 143° |
| 2026-05-07 18:49 | 22.03494 | 114.29688 | 18158 ft | 398 kts | 145° |
| 2026-05-07 18:49 | 22.01236 | 114.31447 | 18693 ft | 403 kts | 145° |
| 2026-05-07 18:49 | 21.98950 | 114.33227 | 19209 ft | 408 kts | 145° |
| 2026-05-07 18:50 | 21.96647 | 114.35029 | 19753 ft | 412 kts | 145° |
| 2026-05-07 18:50 | 21.94318 | 114.36860 | 20290 ft | 416 kts | 144° |
| 2026-05-07 18:50 | 21.91967 | 114.38708 | 20832 ft | 421 kts | 144° |
| 2026-05-07 18:50 | 21.89592 | 114.40579 | 21389 ft | 425 kts | 144° |
| 2026-05-07 18:51 | 21.87319 | 114.42635 | 21936 ft | 430 kts | 136° |
| 2026-05-07 18:51 | 21.85387 | 114.45113 | 22470 ft | 436 kts | 124° |
| 2026-05-07 18:51 | 21.83945 | 114.47994 | 23004 ft | 440 kts | 111° |
| 2026-05-07 18:51 | 21.82986 | 114.51128 | 23544 ft | 443 kts | 104° |
| 2026-05-07 18:52 | 21.82177 | 114.54344 | 23990 ft | 447 kts | 103° |
| 2026-05-07 18:52 | 21.81375 | 114.57587 | 24473 ft | 450 kts | 104° |
| 2026-05-07 18:52 | 21.80566 | 114.60806 | 24968 ft | 453 kts | 104° |
| 2026-05-07 18:52 | 21.79730 | 114.64090 | 25481 ft | 457 kts | 104° |
| 2026-05-07 18:53 | 21.78881 | 114.67397 | 26023 ft | 461 kts | 104° |
| 2026-05-07 18:53 | 21.78021 | 114.70730 | 26574 ft | 464 kts | 104° |
| 2026-05-07 18:53 | 21.77153 | 114.74086 | 27139 ft | 468 kts | 104° |
| 2026-05-07 18:53 | 21.76275 | 114.77470 | 27681 ft | 472 kts | 104° |
| 2026-05-07 18:54 | 21.75390 | 114.80882 | 28223 ft | 475 kts | 104° |
| 2026-05-07 18:54 | 21.74665 | 114.84359 | 28764 ft | 478 kts | 97° |
| 2026-05-07 18:54 | 21.74386 | 114.87935 | 29281 ft | 481 kts | 91° |
| 2026-05-07 18:54 | 21.74316 | 114.91548 | 29782 ft | 485 kts | 89° |
| 2026-05-07 18:55 | 21.74331 | 114.95189 | 30239 ft | 489 kts | 88° |
| 2026-05-07 18:55 | 21.74376 | 114.98853 | 30674 ft | 492 kts | 87° |
| 2026-05-07 18:55 | 21.74420 | 115.02542 | 31109 ft | 495 kts | 88° |
| 2026-05-07 18:55 | 21.74453 | 115.06253 | 31540 ft | 498 kts | 88° |
| 2026-05-07 18:56 | 21.74470 | 115.09985 | 31976 ft | 500 kts | 88° |
| 2026-05-07 18:56 | 21.74477 | 115.13740 | 32389 ft | 503 kts | 88° |
| 2026-05-07 18:56 | 21.74475 | 115.17513 | 32790 ft | 506 kts | 88° |
| 2026-05-07 18:56 | 21.74469 | 115.21308 | 33185 ft | 509 kts | 88° |
| 2026-05-07 18:57 | 21.74464 | 115.25124 | 33561 ft | 512 kts | 88° |
| 2026-05-07 18:57 | 21.74457 | 115.28961 | 33915 ft | 514 kts | 88° |
| 2026-05-07 18:57 | 21.74446 | 115.32817 | 34212 ft | 517 kts | 88° |
| 2026-05-07 18:57 | 21.74435 | 115.36696 | 34482 ft | 520 kts | 88° |
| 2026-05-07 18:58 | 21.74424 | 115.40603 | 34747 ft | 523 kts | 88° |
| 2026-05-07 18:58 | 21.74412 | 115.44525 | 35055 ft | 525 kts | 88° |
| 2026-05-07 18:58 | 21.74398 | 115.48447 | 35449 ft | 524 kts | 88° |
| 2026-05-07 18:58 | 21.74385 | 115.52366 | 35827 ft | 524 kts | 88° |
| 2026-05-07 18:59 | 21.74372 | 115.56285 | 36195 ft | 524 kts | 88° |
| 2026-05-07 18:59 | 21.74356 | 115.60209 | 36553 ft | 525 kts | 88° |
| 2026-05-07 18:59 | 21.74340 | 115.64133 | 36907 ft | 525 kts | 88° |
| 2026-05-07 18:59 | 21.74325 | 115.68059 | 37267 ft | 525 kts | 88° |
| 2026-05-07 19:00 | 21.74310 | 115.71985 | 37622 ft | 525 kts | 87° |
| 2026-05-07 19:00 | 21.74294 | 115.75856 | 37979 ft | 525 kts | 87° |
| 2026-05-07 19:00 | 21.74277 | 115.79776 | 38360 ft | 524 kts | 87° |
| 2026-05-07 19:00 | 21.74258 | 115.83695 | 38690 ft | 524 kts | 87° |
| 2026-05-07 19:01 | 21.74238 | 115.87606 | 39012 ft | 523 kts | 87° |
| 2026-05-07 19:01 | 21.74217 | 115.91506 | 39366 ft | 520 kts | 87° |
| 2026-05-07 19:01 | 21.74195 | 115.95390 | 39728 ft | 518 kts | 87° |
| 2026-05-07 19:01 | 21.74172 | 115.99256 | 40058 ft | 516 kts | 88° |
| 2026-05-07 19:02 | 21.74149 | 116.03113 | 40379 ft | 515 kts | 88° |
| 2026-05-07 19:02 | 21.74124 | 116.06959 | 40701 ft | 513 kts | 88° |
| 2026-05-07 19:02 | 21.74100 | 116.10795 | 40893 ft | 513 kts | 88° |
| 2026-05-07 19:03 | 21.74048 | 116.18458 | 40917 ft | 511 kts | 88° |
| 2026-05-07 19:03 | 21.74002 | 116.24810 | 40917 ft | 511 kts | 88° |
| 2026-05-07 19:04 | 21.73944 | 116.32457 | 40915 ft | 511 kts | 88° |
| 2026-05-07 19:04 | 21.73882 | 116.40092 | 40915 ft | 511 kts | 88° |
| 2026-05-07 19:05 | 21.73818 | 116.47728 | 40914 ft | 510 kts | 88° |
| 2026-05-07 19:05 | 21.73750 | 116.55360 | 40915 ft | 510 kts | 88° |
| 2026-05-07 19:06 | 21.73678 | 116.62985 | 40912 ft | 510 kts | 88° |
| 2026-05-07 19:06 | 21.73597 | 116.74427 | 40917 ft | 509 kts | 85° |
| 2026-05-07 19:07 | 21.74825 | 116.81837 | 40915 ft | 501 kts | 68° |
| 2026-05-07 19:07 | 21.77194 | 116.88885 | 40912 ft | 501 kts | 65° |
| 2026-05-07 19:08 | 21.79761 | 116.95858 | 40910 ft | 501 kts | 64° |
| 2026-05-07 19:08 | 21.82333 | 117.02832 | 40913 ft | 502 kts | 65° |
| 2026-05-07 19:09 | 21.84858 | 117.09778 | 40911 ft | 502 kts | 65° |
| 2026-05-07 19:09 | 21.87382 | 117.16780 | 40915 ft | 502 kts | 65° |
| 2026-05-07 19:10 | 21.89901 | 117.23788 | 40914 ft | 502 kts | 65° |
| 2026-05-07 19:10 | 21.92418 | 117.30797 | 40912 ft | 502 kts | 65° |
| 2026-05-07 19:11 | 21.94934 | 117.37810 | 40910 ft | 502 kts | 65° |
| 2026-05-07 19:11 | 21.97447 | 117.44825 | 40915 ft | 502 kts | 65° |
| 2026-05-07 19:12 | 22.00321 | 117.51635 | 40911 ft | 497 kts | 57° |
| 2026-05-07 19:12 | 22.03832 | 117.58056 | 40914 ft | 497 kts | 54° |
| 2026-05-07 19:13 | 22.07455 | 117.64406 | 40914 ft | 497 kts | 54° |
| 2026-05-07 19:13 | 22.11087 | 117.70756 | 40911 ft | 498 kts | 54° |
| 2026-05-07 19:14 | 22.14705 | 117.77121 | 40911 ft | 498 kts | 54° |
| 2026-05-07 19:14 | 22.18314 | 117.83499 | 40912 ft | 498 kts | 54° |
| 2026-05-07 19:15 | 22.21922 | 117.89886 | 40917 ft | 498 kts | 54° |
| 2026-05-07 19:15 | 22.25528 | 117.96278 | 40917 ft | 499 kts | 54° |
| 2026-05-07 19:16 | 22.29142 | 118.02674 | 40912 ft | 499 kts | 54° |
| 2026-05-07 19:16 | 22.32836 | 118.09014 | 40920 ft | 499 kts | 53° |
| 2026-05-07 19:17 | 22.36555 | 118.15341 | 40915 ft | 499 kts | 53° |
| 2026-05-07 19:17 | 22.40241 | 118.21644 | 40917 ft | 500 kts | 53° |
| 2026-05-07 19:18 | 22.43815 | 118.27908 | 40910 ft | 476 kts | 54° |
| 2026-05-07 19:18 | 22.45504 | 118.30920 | 40910 ft | 462 kts | 54° |
| 2026-05-07 19:18 | 22.47142 | 118.33846 | 40911 ft | 448 kts | 54° |
| 2026-05-07 19:19 | 22.48731 | 118.36683 | 40914 ft | 434 kts | 54° |
| 2026-05-07 19:19 | 22.50272 | 118.39427 | 40912 ft | 421 kts | 53° |
| 2026-05-07 19:19 | 22.53304 | 118.44799 | 40921 ft | 419 kts | 53° |
| 2026-05-07 19:20 | 22.56359 | 118.50189 | 40920 ft | 421 kts | 53° |
| 2026-05-07 19:20 | 22.59420 | 118.55592 | 40919 ft | 421 kts | 53° |
| 2026-05-07 19:21 | 22.62504 | 118.60990 | 40920 ft | 422 kts | 53° |
| 2026-05-07 19:21 | 22.65586 | 118.66389 | 40920 ft | 422 kts | 53° |
| 2026-05-07 19:22 | 22.68666 | 118.71801 | 40921 ft | 422 kts | 53° |
| 2026-05-07 19:22 | 22.71743 | 118.77219 | 40920 ft | 422 kts | 53° |
| 2026-05-07 19:23 | 22.74819 | 118.82641 | 40920 ft | 423 kts | 53° |
| 2026-05-07 19:23 | 22.77898 | 118.88073 | 40921 ft | 423 kts | 53° |
| 2026-05-07 19:24 | 22.80976 | 118.93509 | 40922 ft | 423 kts | 53° |
| 2026-05-07 19:24 | 22.84053 | 118.98950 | 40921 ft | 423 kts | 53° |
| 2026-05-07 19:25 | 22.87128 | 119.04393 | 40924 ft | 423 kts | 53° |
| 2026-05-07 19:25 | 22.90183 | 119.09805 | 40923 ft | 424 kts | 53° |
| 2026-05-07 19:26 | 22.93258 | 119.15259 | 40922 ft | 424 kts | 53° |
| 2026-05-07 19:26 | 22.96333 | 119.20718 | 40925 ft | 424 kts | 53° |
| 2026-05-07 19:27 | 22.99406 | 119.26181 | 40923 ft | 424 kts | 53° |
| 2026-05-07 19:27 | 23.02479 | 119.31648 | 40923 ft | 424 kts | 53° |
| 2026-05-07 19:28 | 23.05551 | 119.37119 | 40924 ft | 424 kts | 53° |
| 2026-05-07 19:28 | 23.08623 | 119.42597 | 40923 ft | 425 kts | 53° |
| 2026-05-07 19:29 | 23.11691 | 119.48074 | 40924 ft | 425 kts | 53° |
| 2026-05-07 19:29 | 23.14759 | 119.53556 | 40926 ft | 425 kts | 53° |
| 2026-05-07 19:30 | 23.17826 | 119.59044 | 40925 ft | 425 kts | 53° |
| 2026-05-07 19:30 | 23.20890 | 119.64531 | 40922 ft | 425 kts | 53° |
| 2026-05-07 19:31 | 23.23954 | 119.70016 | 40927 ft | 425 kts | 53° |
| 2026-05-07 19:31 | 23.27019 | 119.75508 | 40935 ft | 425 kts | 53° |
| 2026-05-07 19:32 | 23.30081 | 119.81003 | 40932 ft | 425 kts | 53° |
| 2026-05-07 19:32 | 23.33144 | 119.86506 | 40931 ft | 425 kts | 53° |
| 2026-05-07 19:33 | 23.36322 | 119.91904 | 40932 ft | 421 kts | 46° |
| 2026-05-07 19:33 | 23.40299 | 119.96497 | 40926 ft | 416 kts | 38° |
| 2026-05-07 19:34 | 23.44469 | 120.00794 | 40928 ft | 415 kts | 37° |
| 2026-05-07 19:34 | 23.48729 | 120.05112 | 40931 ft | 416 kts | 37° |
| 2026-05-07 19:35 | 23.52917 | 120.09395 | 40932 ft | 416 kts | 37° |
| 2026-05-07 19:35 | 23.57123 | 120.13729 | 40944 ft | 416 kts | 38° |
| 2026-05-07 19:36 | 23.61326 | 120.18072 | 40939 ft | 416 kts | 38° |
| 2026-05-07 19:36 | 23.65531 | 120.22420 | 40941 ft | 416 kts | 38° |
| 2026-05-07 19:37 | 23.69732 | 120.26768 | 40945 ft | 416 kts | 38° |
| 2026-05-07 19:37 | 23.73937 | 120.31122 | 40948 ft | 417 kts | 38° |
| 2026-05-07 19:38 | 23.78138 | 120.35477 | 40947 ft | 417 kts | 38° |
| 2026-05-07 19:38 | 23.82338 | 120.39834 | 40951 ft | 417 kts | 38° |
| 2026-05-07 19:39 | 23.86539 | 120.44197 | 40953 ft | 417 kts | 38° |
| 2026-05-07 19:39 | 23.90741 | 120.48566 | 40956 ft | 417 kts | 38° |
| 2026-05-07 19:40 | 23.94927 | 120.52959 | 40962 ft | 417 kts | 38° |
| 2026-05-07 19:40 | 23.99101 | 120.57367 | 40968 ft | 417 kts | 38° |
| 2026-05-07 19:41 | 24.03277 | 120.61781 | 40971 ft | 417 kts | 38° |
| 2026-05-07 19:41 | 24.07453 | 120.66194 | 40976 ft | 417 kts | 38° |
| 2026-05-07 19:42 | 24.11628 | 120.70609 | 40979 ft | 417 kts | 38° |
| 2026-05-07 19:42 | 24.15806 | 120.75030 | 40981 ft | 418 kts | 38° |
| 2026-05-07 19:43 | 24.19981 | 120.79454 | 40980 ft | 418 kts | 38° |
| 2026-05-07 19:43 | 24.24158 | 120.83884 | 40981 ft | 418 kts | 38° |
| 2026-05-07 19:44 | 24.28337 | 120.88319 | 40985 ft | 418 kts | 38° |
| 2026-05-07 19:44 | 24.32515 | 120.92758 | 40992 ft | 418 kts | 38° |
| 2026-05-07 19:45 | 24.36694 | 120.97202 | 41006 ft | 418 kts | 38° |
| 2026-05-07 19:45 | 24.40828 | 121.01635 | 40997 ft | 420 kts | 41° |
| 2026-05-07 19:46 | 24.44618 | 121.06561 | 41033 ft | 423 kts | 45° |
| 2026-05-07 19:46 | 24.48298 | 121.11610 | 41024 ft | 424 kts | 45° |
| 2026-05-07 19:47 | 24.51966 | 121.16696 | 41008 ft | 424 kts | 45° |
| 2026-05-07 19:47 | 24.55632 | 121.21774 | 41014 ft | 424 kts | 45° |
| 2026-05-07 19:48 | 24.59302 | 121.26846 | 41012 ft | 424 kts | 45° |
| 2026-05-07 19:48 | 24.62968 | 121.31918 | 41021 ft | 424 kts | 45° |
| 2026-05-07 19:49 | 24.66636 | 121.36997 | 40999 ft | 424 kts | 45° |
| 2026-05-07 19:49 | 24.70301 | 121.42075 | 40988 ft | 424 kts | 45° |
| 2026-05-07 19:50 | 24.73964 | 121.47155 | 40965 ft | 423 kts | 45° |
| 2026-05-07 19:50 | 24.77627 | 121.52244 | 40966 ft | 424 kts | 45° |
| 2026-05-07 19:51 | 24.81285 | 121.57331 | 40956 ft | 424 kts | 45° |
| 2026-05-07 19:51 | 24.84945 | 121.62429 | 40955 ft | 424 kts | 45° |
| 2026-05-07 19:52 | 24.87986 | 121.66666 | 40944 ft | 424 kts | 45° |
| 2026-05-07 19:52 | 24.92293 | 121.72542 | 40950 ft | 423 kts | 43° |
| 2026-05-07 19:53 | 24.95526 | 121.76621 | 40950 ft | 422 kts | 42° |
| 2026-05-07 19:53 | 24.99414 | 121.81470 | 40948 ft | 422 kts | 42° |
| 2026-05-07 19:54 | 25.03277 | 121.86349 | 40947 ft | 422 kts | 43° |
| 2026-05-07 19:54 | 25.07122 | 121.91249 | 40942 ft | 422 kts | 43° |
| 2026-05-07 19:55 | 25.10961 | 121.96155 | 40940 ft | 423 kts | 43° |
| 2026-05-07 19:55 | 25.14800 | 122.01070 | 40939 ft | 423 kts | 43° |
| 2026-05-07 19:56 | 25.18616 | 122.06011 | 40941 ft | 423 kts | 43° |
| 2026-05-07 19:56 | 25.22421 | 122.10964 | 40939 ft | 423 kts | 43° |
| 2026-05-07 19:57 | 25.26229 | 122.15918 | 40939 ft | 423 kts | 43° |
| 2026-05-07 19:57 | 25.30037 | 122.20869 | 40936 ft | 423 kts | 43° |
| 2026-05-07 19:58 | 25.33847 | 122.25826 | 40939 ft | 423 kts | 43° |
| 2026-05-07 19:58 | 25.37653 | 122.30784 | 40938 ft | 423 kts | 43° |
| 2026-05-07 19:59 | 25.41458 | 122.35745 | 40939 ft | 423 kts | 43° |
| 2026-05-07 19:59 | 25.45261 | 122.40710 | 40937 ft | 423 kts | 43° |
| 2026-05-07 20:00 | 25.49041 | 122.45650 | 40942 ft | 423 kts | 43° |
| 2026-05-07 20:00 | 25.52844 | 122.50625 | 40941 ft | 423 kts | 43° |
| 2026-05-07 20:01 | 25.56664 | 122.55585 | 40948 ft | 423 kts | 43° |
| 2026-05-07 20:01 | 25.60489 | 122.60546 | 40935 ft | 423 kts | 43° |
| 2026-05-07 20:02 | 25.64311 | 122.65516 | 40948 ft | 424 kts | 43° |
| 2026-05-07 20:02 | 25.68133 | 122.70495 | 40950 ft | 424 kts | 43° |
| 2026-05-07 20:03 | 25.71952 | 122.75478 | 40952 ft | 424 kts | 43° |
| 2026-05-07 20:03 | 25.75772 | 122.80468 | 40947 ft | 424 kts | 43° |
| 2026-05-07 20:04 | 25.79594 | 122.85465 | 40949 ft | 425 kts | 43° |
| 2026-05-07 20:04 | 25.83416 | 122.90468 | 40951 ft | 425 kts | 43° |
| 2026-05-07 20:05 | 25.87235 | 122.95473 | 40940 ft | 425 kts | 43° |
| 2026-05-07 20:05 | 25.91055 | 123.00485 | 40958 ft | 425 kts | 43° |
| 2026-05-07 20:06 | 25.94877 | 123.05509 | 40944 ft | 426 kts | 43° |
| 2026-05-07 20:06 | 25.98697 | 123.10534 | 40952 ft | 426 kts | 43° |
| 2026-05-07 20:07 | 26.02520 | 123.15568 | 40956 ft | 426 kts | 43° |
| 2026-05-07 20:07 | 26.06343 | 123.20609 | 40954 ft | 426 kts | 43° |
| 2026-05-07 20:08 | 26.10167 | 123.25657 | 40953 ft | 427 kts | 42° |
| 2026-05-07 20:08 | 26.13969 | 123.30681 | 40955 ft | 427 kts | 42° |
| 2026-05-07 20:09 | 26.17795 | 123.35744 | 40958 ft | 428 kts | 43° |
| 2026-05-07 20:10 | 26.23540 | 123.43355 | 40959 ft | 428 kts | 42° |
| 2026-05-07 20:10 | 26.27372 | 123.48438 | 40960 ft | 428 kts | 43° |
| 2026-05-07 20:11 | 26.31203 | 123.53527 | 40968 ft | 429 kts | 43° |
| 2026-05-07 20:11 | 26.35033 | 123.58620 | 40962 ft | 429 kts | 42° |
| 2026-05-07 20:12 | 26.38868 | 123.63725 | 40959 ft | 429 kts | 42° |
| 2026-05-07 20:12 | 26.42704 | 123.68838 | 40961 ft | 430 kts | 42° |
| 2026-05-07 20:13 | 26.46543 | 123.73960 | 40962 ft | 430 kts | 42° |
| 2026-05-07 20:13 | 26.50354 | 123.79050 | 40966 ft | 431 kts | 42° |
| 2026-05-07 20:14 | 26.54219 | 123.84218 | 40959 ft | 431 kts | 43° |
| 2026-05-07 20:14 | 26.58034 | 123.89327 | 40964 ft | 431 kts | 43° |
| 2026-05-07 20:15 | 26.61876 | 123.94476 | 40973 ft | 431 kts | 43° |
| 2026-05-07 20:15 | 26.65717 | 123.99631 | 40968 ft | 432 kts | 43° |
| 2026-05-07 20:16 | 26.69566 | 124.04784 | 40969 ft | 432 kts | 42° |
| 2026-05-07 20:16 | 26.73419 | 124.09937 | 40970 ft | 432 kts | 42° |
| 2026-05-07 20:17 | 26.77274 | 124.15099 | 40967 ft | 432 kts | 42° |
| 2026-05-07 20:17 | 26.81129 | 124.20270 | 40969 ft | 433 kts | 42° |
| 2026-05-07 20:18 | 26.84981 | 124.25442 | 40969 ft | 433 kts | 42° |
| 2026-05-07 20:18 | 26.88838 | 124.30628 | 40972 ft | 433 kts | 42° |
| 2026-05-07 20:19 | 26.92692 | 124.35817 | 40970 ft | 433 kts | 42° |
| 2026-05-07 20:19 | 26.96550 | 124.41016 | 40973 ft | 434 kts | 42° |
| 2026-05-07 20:20 | 27.00404 | 124.46224 | 40973 ft | 434 kts | 42° |
| 2026-05-07 20:20 | 27.04267 | 124.51436 | 40977 ft | 434 kts | 42° |
| 2026-05-07 20:21 | 27.08132 | 124.56653 | 40977 ft | 435 kts | 42° |
| 2026-05-07 20:21 | 27.11996 | 124.61879 | 40979 ft | 435 kts | 42° |
| 2026-05-07 20:22 | 27.15858 | 124.67110 | 40976 ft | 436 kts | 42° |
| 2026-05-07 20:22 | 27.19727 | 124.72357 | 40983 ft | 436 kts | 42° |
| 2026-05-07 20:23 | 27.23591 | 124.77604 | 40980 ft | 436 kts | 42° |
| 2026-05-07 20:23 | 27.27455 | 124.82857 | 40978 ft | 436 kts | 42° |
| 2026-05-07 20:24 | 27.31321 | 124.88118 | 40981 ft | 436 kts | 42° |
| 2026-05-07 20:24 | 27.35185 | 124.93383 | 40985 ft | 437 kts | 42° |
| 2026-05-07 20:25 | 27.39051 | 124.98659 | 40982 ft | 437 kts | 42° |
| 2026-05-07 20:25 | 27.42923 | 125.03930 | 40984 ft | 437 kts | 42° |
| 2026-05-07 20:26 | 27.46821 | 125.09174 | 40986 ft | 437 kts | 42° |
| 2026-05-07 20:26 | 27.50723 | 125.14423 | 40987 ft | 437 kts | 42° |
| 2026-05-07 20:27 | 27.54620 | 125.19685 | 40986 ft | 437 kts | 42° |
| 2026-05-07 20:27 | 27.58488 | 125.24920 | 40989 ft | 438 kts | 42° |
| 2026-05-07 20:28 | 27.62380 | 125.30196 | 40989 ft | 438 kts | 42° |
| 2026-05-07 20:28 | 27.66275 | 125.35483 | 40989 ft | 438 kts | 42° |
| 2026-05-07 20:29 | 27.70166 | 125.40771 | 40989 ft | 438 kts | 42° |
| 2026-05-07 20:29 | 27.74061 | 125.46070 | 40990 ft | 439 kts | 42° |
| 2026-05-07 20:30 | 27.77956 | 125.51374 | 40994 ft | 439 kts | 42° |
| 2026-05-07 20:30 | 27.81852 | 125.56688 | 40998 ft | 439 kts | 42° |
| 2026-05-07 20:31 | 27.85748 | 125.62008 | 40990 ft | 439 kts | 42° |
| 2026-05-07 20:31 | 27.89642 | 125.67332 | 40989 ft | 440 kts | 42° |
| 2026-05-07 20:32 | 27.93536 | 125.72663 | 40994 ft | 440 kts | 42° |
| 2026-05-07 20:32 | 27.97432 | 125.78002 | 40993 ft | 440 kts | 42° |
| 2026-05-07 20:33 | 28.01332 | 125.83353 | 40990 ft | 441 kts | 42° |
| 2026-05-07 20:33 | 28.05232 | 125.88713 | 40994 ft | 441 kts | 42° |
| 2026-05-07 20:34 | 28.09133 | 125.94079 | 40988 ft | 441 kts | 42° |
| 2026-05-07 20:34 | 28.13032 | 125.99451 | 40998 ft | 442 kts | 42° |
| 2026-05-07 20:35 | 28.16933 | 126.04831 | 40996 ft | 442 kts | 42° |
| 2026-05-07 20:35 | 28.20833 | 126.10217 | 40993 ft | 442 kts | 43° |
| 2026-05-07 20:36 | 28.24738 | 126.15616 | 40989 ft | 443 kts | 43° |
| 2026-05-07 20:36 | 28.28641 | 126.21021 | 40992 ft | 443 kts | 43° |
| 2026-05-07 20:37 | 28.32544 | 126.26432 | 40996 ft | 443 kts | 43° |
| 2026-05-07 20:37 | 28.36421 | 126.31814 | 40994 ft | 443 kts | 43° |
| 2026-05-07 20:38 | 28.40323 | 126.37236 | 40995 ft | 443 kts | 43° |
| 2026-05-07 20:38 | 28.44220 | 126.42660 | 40994 ft | 443 kts | 43° |
| 2026-05-07 20:39 | 28.48121 | 126.48096 | 40997 ft | 444 kts | 43° |
| 2026-05-07 20:39 | 28.52020 | 126.53536 | 40998 ft | 444 kts | 43° |
| 2026-05-07 20:40 | 28.55918 | 126.58980 | 40999 ft | 444 kts | 43° |
| 2026-05-07 20:40 | 28.59155 | 126.63509 | 41002 ft | 444 kts | 43° |
| 2026-05-07 20:41 | 28.63050 | 126.68963 | 40998 ft | 444 kts | 43° |
| 2026-05-07 20:41 | 28.66948 | 126.74428 | 41004 ft | 444 kts | 43° |
| 2026-05-07 20:42 | 28.70841 | 126.79895 | 41002 ft | 444 kts | 43° |
| 2026-05-07 20:42 | 28.74733 | 126.85366 | 40999 ft | 445 kts | 43° |
| 2026-05-07 20:43 | 28.78626 | 126.90847 | 41003 ft | 445 kts | 43° |
| 2026-05-07 20:43 | 28.82519 | 126.96334 | 40991 ft | 445 kts | 43° |
| 2026-05-07 20:44 | 28.86410 | 127.01825 | 41010 ft | 445 kts | 43° |
| 2026-05-07 20:44 | 28.90303 | 127.07327 | 40996 ft | 446 kts | 43° |
| 2026-05-07 20:45 | 28.94197 | 127.12838 | 41003 ft | 446 kts | 43° |
| 2026-05-07 20:45 | 28.98093 | 127.18359 | 41004 ft | 447 kts | 43° |
| 2026-05-07 20:46 | 29.01990 | 127.23888 | 41002 ft | 447 kts | 43° |
| 2026-05-07 20:46 | 29.05887 | 127.29426 | 41001 ft | 447 kts | 43° |
| 2026-05-07 20:47 | 29.09787 | 127.34975 | 41002 ft | 448 kts | 43° |
| 2026-05-07 20:47 | 29.13687 | 127.40530 | 41000 ft | 448 kts | 43° |
| 2026-05-07 20:48 | 29.17585 | 127.46092 | 41002 ft | 448 kts | 43° |
| 2026-05-07 20:48 | 29.21483 | 127.51661 | 41003 ft | 448 kts | 43° |
| 2026-05-07 20:49 | 29.25380 | 127.57234 | 41003 ft | 449 kts | 43° |
| 2026-05-07 20:49 | 29.29281 | 127.62822 | 41003 ft | 449 kts | 43° |
| 2026-05-07 20:50 | 29.33179 | 127.68413 | 41004 ft | 449 kts | 44° |
| 2026-05-07 20:50 | 29.37077 | 127.74013 | 41001 ft | 449 kts | 44° |
| 2026-05-07 20:51 | 29.40976 | 127.79620 | 41001 ft | 450 kts | 44° |
| 2026-05-07 20:51 | 29.44872 | 127.85230 | 41003 ft | 450 kts | 44° |
| 2026-05-07 20:52 | 29.48741 | 127.90811 | 41000 ft | 450 kts | 44° |
| 2026-05-07 20:52 | 29.52660 | 127.96472 | 41001 ft | 450 kts | 44° |
| 2026-05-07 20:53 | 29.56526 | 128.02064 | 41001 ft | 450 kts | 44° |
| 2026-05-07 20:53 | 29.60426 | 128.07701 | 41001 ft | 451 kts | 44° |
| 2026-05-07 20:54 | 29.64323 | 128.13342 | 41002 ft | 451 kts | 44° |
| 2026-05-07 20:54 | 29.68220 | 128.18994 | 40997 ft | 451 kts | 44° |
| 2026-05-07 20:55 | 29.72116 | 128.24653 | 40998 ft | 451 kts | 44° |
| 2026-05-07 20:55 | 29.76012 | 128.30321 | 40996 ft | 452 kts | 44° |
| 2026-05-07 20:56 | 29.79908 | 128.35995 | 41001 ft | 452 kts | 44° |
| 2026-05-07 20:56 | 29.83800 | 128.41673 | 41001 ft | 452 kts | 44° |
| 2026-05-07 20:57 | 29.87694 | 128.47360 | 40995 ft | 452 kts | 44° |
| 2026-05-07 20:57 | 29.91585 | 128.53052 | 40997 ft | 452 kts | 44° |
| 2026-05-07 20:58 | 29.95476 | 128.58753 | 40997 ft | 453 kts | 44° |
| 2026-05-07 20:58 | 29.99371 | 128.64465 | 40995 ft | 453 kts | 44° |
| 2026-05-07 20:59 | 30.03261 | 128.70181 | 40994 ft | 453 kts | 44° |
| 2026-05-07 20:59 | 30.07125 | 128.75864 | 40993 ft | 453 kts | 44° |
| 2026-05-07 21:00 | 30.11015 | 128.81594 | 40995 ft | 454 kts | 45° |
| 2026-05-07 21:00 | 30.14905 | 128.87334 | 40996 ft | 454 kts | 45° |
| 2026-05-07 21:01 | 30.18796 | 128.93082 | 40992 ft | 454 kts | 45° |
| 2026-05-07 21:01 | 30.22686 | 128.98837 | 40987 ft | 454 kts | 45° |
| 2026-05-07 21:02 | 30.26580 | 129.04600 | 40994 ft | 455 kts | 45° |
| 2026-05-07 21:02 | 30.30469 | 129.10373 | 40992 ft | 455 kts | 45° |
| 2026-05-07 21:03 | 30.34361 | 129.16160 | 40980 ft | 455 kts | 45° |
| 2026-05-07 21:03 | 30.38252 | 129.21953 | 40988 ft | 456 kts | 45° |
| 2026-05-07 21:04 | 30.42143 | 129.27751 | 40985 ft | 456 kts | 45° |
| 2026-05-07 21:04 | 30.46038 | 129.33566 | 40989 ft | 456 kts | 45° |
| 2026-05-07 21:05 | 30.49928 | 129.39379 | 40988 ft | 457 kts | 45° |
| 2026-05-07 21:05 | 30.53817 | 129.45202 | 40990 ft | 457 kts | 45° |
| 2026-05-07 21:06 | 30.57706 | 129.51033 | 40988 ft | 457 kts | 45° |
| 2026-05-07 21:06 | 30.61600 | 129.56878 | 40986 ft | 458 kts | 45° |
| 2026-05-07 21:07 | 30.65488 | 129.62725 | 40986 ft | 458 kts | 45° |
| 2026-05-07 21:07 | 30.69380 | 129.68584 | 40986 ft | 458 kts | 45° |
| 2026-05-07 21:08 | 30.73270 | 129.74449 | 40984 ft | 458 kts | 45° |
| 2026-05-07 21:08 | 30.77156 | 129.80319 | 40983 ft | 458 kts | 45° |
| 2026-05-07 21:09 | 30.81044 | 129.86200 | 40982 ft | 458 kts | 45° |
| 2026-05-07 21:09 | 30.84815 | 129.92136 | 40985 ft | 462 kts | 50° |
| 2026-05-07 21:10 | 30.88277 | 129.98448 | 40985 ft | 463 kts | 52° |
| 2026-05-07 21:10 | 30.91669 | 130.04833 | 40980 ft | 464 kts | 52° |
| 2026-05-07 21:11 | 30.95048 | 130.11232 | 40983 ft | 464 kts | 52° |
| 2026-05-07 21:11 | 31.00124 | 130.20829 | 40980 ft | 464 kts | 52° |
| 2026-05-07 21:12 | 31.03511 | 130.27234 | 40978 ft | 464 kts | 52° |
| 2026-05-07 21:12 | 31.06896 | 130.33644 | 40978 ft | 464 kts | 52° |
| 2026-05-07 21:13 | 31.10278 | 130.40060 | 40980 ft | 464 kts | 52° |
| 2026-05-07 21:13 | 31.13660 | 130.46487 | 40979 ft | 464 kts | 52° |
| 2026-05-07 21:14 | 31.17036 | 130.52915 | 40982 ft | 465 kts | 52° |
| 2026-05-07 21:14 | 31.20413 | 130.59353 | 40981 ft | 465 kts | 52° |
| 2026-05-07 21:15 | 31.23792 | 130.65807 | 40978 ft | 465 kts | 52° |
| 2026-05-07 21:15 | 31.27167 | 130.72262 | 40975 ft | 466 kts | 52° |
| 2026-05-07 21:16 | 31.30542 | 130.78729 | 40972 ft | 466 kts | 52° |
| 2026-05-07 21:16 | 31.33890 | 130.85155 | 40971 ft | 466 kts | 52° |
| 2026-05-07 21:17 | 31.37260 | 130.91634 | 40972 ft | 466 kts | 52° |
| 2026-05-07 21:17 | 31.40628 | 130.98121 | 40971 ft | 467 kts | 52° |
| 2026-05-07 21:18 | 31.43997 | 131.04621 | 40977 ft | 467 kts | 53° |
| 2026-05-07 21:18 | 31.47363 | 131.11126 | 40970 ft | 467 kts | 53° |
| 2026-05-07 21:19 | 31.50731 | 131.17645 | 40962 ft | 468 kts | 53° |
| 2026-05-07 21:19 | 31.54101 | 131.24179 | 40958 ft | 468 kts | 53° |
| 2026-05-07 21:20 | 31.57469 | 131.30719 | 40949 ft | 468 kts | 53° |
| 2026-05-07 21:20 | 31.60833 | 131.37265 | 40945 ft | 469 kts | 53° |
| 2026-05-07 21:21 | 31.64193 | 131.43819 | 40935 ft | 469 kts | 53° |
| 2026-05-07 21:21 | 31.67548 | 131.50378 | 40925 ft | 469 kts | 53° |
| 2026-05-07 21:22 | 31.70899 | 131.56942 | 40927 ft | 468 kts | 53° |
| 2026-05-07 21:22 | 31.74245 | 131.63502 | 40931 ft | 468 kts | 53° |
| 2026-05-07 21:23 | 31.77587 | 131.70068 | 40923 ft | 468 kts | 53° |
| 2026-05-07 21:23 | 31.80927 | 131.76641 | 40934 ft | 468 kts | 53° |
| 2026-05-07 21:24 | 31.84264 | 131.83219 | 40933 ft | 468 kts | 53° |
| 2026-05-07 21:24 | 31.87576 | 131.89759 | 40934 ft | 469 kts | 54° |
| 2026-05-07 21:25 | 31.90906 | 131.96347 | 40934 ft | 469 kts | 54° |
| 2026-05-07 21:25 | 31.94237 | 132.02947 | 40929 ft | 469 kts | 54° |
| 2026-05-07 21:26 | 31.97561 | 132.09546 | 40929 ft | 469 kts | 54° |
| 2026-05-07 21:26 | 32.00885 | 132.16157 | 40925 ft | 469 kts | 54° |
| 2026-05-07 21:27 | 32.04204 | 132.22768 | 40925 ft | 469 kts | 54° |
| 2026-05-07 21:27 | 32.07518 | 132.29382 | 40922 ft | 468 kts | 54° |
| 2026-05-07 21:28 | 32.10827 | 132.35997 | 40923 ft | 468 kts | 54° |
| 2026-05-07 21:28 | 32.14090 | 132.42651 | 40919 ft | 470 kts | 57° |
| 2026-05-07 21:29 | 32.16542 | 132.48385 | 40920 ft | 471 kts | 59° |
| 2026-05-07 21:29 | 32.19384 | 132.55353 | 40917 ft | 471 kts | 59° |
| 2026-05-07 21:30 | 32.22258 | 132.62299 | 40917 ft | 471 kts | 59° |
| 2026-05-07 21:30 | 32.25169 | 132.69225 | 40915 ft | 471 kts | 59° |
| 2026-05-07 21:31 | 32.28091 | 132.76148 | 40914 ft | 471 kts | 59° |
| 2026-05-07 21:31 | 32.31010 | 132.83074 | 40912 ft | 471 kts | 59° |
| 2026-05-07 21:32 | 32.33919 | 132.90000 | 40910 ft | 470 kts | 59° |
| 2026-05-07 21:32 | 32.36826 | 132.96935 | 40912 ft | 470 kts | 59° |
| 2026-05-07 21:33 | 32.39726 | 133.03866 | 40913 ft | 470 kts | 59° |
| 2026-05-07 21:33 | 32.42623 | 133.10805 | 40910 ft | 470 kts | 59° |
| 2026-05-07 21:34 | 32.45517 | 133.17752 | 40911 ft | 470 kts | 59° |
| 2026-05-07 21:34 | 32.48407 | 133.24700 | 40908 ft | 470 kts | 59° |
| 2026-05-07 21:35 | 32.51294 | 133.31656 | 40908 ft | 471 kts | 59° |
| 2026-05-07 21:35 | 32.54178 | 133.38619 | 40903 ft | 470 kts | 59° |
| 2026-05-07 21:36 | 32.57057 | 133.45581 | 40907 ft | 470 kts | 59° |
| 2026-05-07 21:36 | 32.59934 | 133.52544 | 40906 ft | 470 kts | 59° |
| 2026-05-07 21:37 | 32.62786 | 133.59474 | 40905 ft | 470 kts | 60° |
| 2026-05-07 21:37 | 32.65674 | 133.66495 | 40903 ft | 470 kts | 60° |
| 2026-05-07 21:38 | 32.68517 | 133.73428 | 40906 ft | 470 kts | 60° |
| 2026-05-07 21:38 | 32.71373 | 133.80406 | 40910 ft | 470 kts | 60° |
| 2026-05-07 21:39 | 32.74227 | 133.87392 | 40909 ft | 470 kts | 60° |
| 2026-05-07 21:39 | 32.77078 | 133.94382 | 40908 ft | 470 kts | 60° |
| 2026-05-07 21:40 | 32.79925 | 134.01377 | 40906 ft | 470 kts | 60° |
| 2026-05-07 21:40 | 32.82544 | 134.08498 | 40908 ft | 472 kts | 69° |
| 2026-05-07 21:41 | 32.84535 | 134.15944 | 40907 ft | 472 kts | 71° |
| 2026-05-07 21:41 | 32.86395 | 134.23434 | 40907 ft | 472 kts | 71° |
| 2026-05-07 21:42 | 32.88236 | 134.30935 | 40907 ft | 472 kts | 71° |
| 2026-05-07 21:42 | 32.90086 | 134.38432 | 40904 ft | 472 kts | 71° |
| 2026-05-07 21:43 | 32.91941 | 134.45930 | 40904 ft | 473 kts | 71° |
| 2026-05-07 21:43 | 32.93797 | 134.53441 | 40905 ft | 473 kts | 71° |
| 2026-05-07 21:44 | 32.95647 | 134.60951 | 40905 ft | 473 kts | 71° |
| 2026-05-07 21:44 | 32.97492 | 134.68470 | 40903 ft | 473 kts | 71° |
| 2026-05-07 21:45 | 32.99335 | 134.75998 | 40907 ft | 473 kts | 71° |
| 2026-05-07 21:45 | 33.01175 | 134.83521 | 40904 ft | 473 kts | 71° |
| 2026-05-07 21:46 | 33.03005 | 134.91044 | 40900 ft | 473 kts | 72° |
| 2026-05-07 21:46 | 33.04827 | 134.98564 | 40905 ft | 472 kts | 72° |
| 2026-05-07 21:47 | 33.06645 | 135.06080 | 40905 ft | 471 kts | 72° |
| 2026-05-07 21:47 | 33.08455 | 135.13584 | 40903 ft | 471 kts | 72° |
| 2026-05-07 21:48 | 33.10259 | 135.21082 | 40903 ft | 470 kts | 72° |
| 2026-05-07 21:48 | 33.11966 | 135.28612 | 40900 ft | 470 kts | 73° |
| 2026-05-07 21:49 | 33.13608 | 135.36150 | 40902 ft | 469 kts | 74° |
| 2026-05-07 21:49 | 33.15250 | 135.43674 | 40906 ft | 469 kts | 73° |
| 2026-05-07 21:50 | 33.16900 | 135.51195 | 40905 ft | 468 kts | 74° |
| 2026-05-07 21:50 | 33.18538 | 135.58658 | 40905 ft | 468 kts | 74° |
| 2026-05-07 21:51 | 33.20182 | 135.66167 | 40908 ft | 467 kts | 74° |
| 2026-05-07 21:51 | 33.21821 | 135.73678 | 40906 ft | 467 kts | 74° |
| 2026-05-07 21:52 | 33.23453 | 135.81184 | 40903 ft | 467 kts | 74° |
| 2026-05-07 21:52 | 33.25080 | 135.88690 | 40903 ft | 467 kts | 74° |
| 2026-05-07 21:53 | 33.26697 | 135.96194 | 40903 ft | 466 kts | 74° |
| 2026-05-07 21:53 | 33.28315 | 136.03699 | 40903 ft | 466 kts | 74° |
| 2026-05-07 21:54 | 33.29928 | 136.11203 | 40901 ft | 466 kts | 75° |
| 2026-05-07 21:54 | 33.31534 | 136.18707 | 40900 ft | 466 kts | 75° |
| 2026-05-07 21:55 | 33.33135 | 136.26213 | 40900 ft | 466 kts | 75° |
| 2026-05-07 21:55 | 33.34732 | 136.33719 | 40903 ft | 466 kts | 75° |
| 2026-05-07 21:56 | 33.36323 | 136.41227 | 40899 ft | 466 kts | 75° |
| 2026-05-07 21:56 | 33.37910 | 136.48737 | 40903 ft | 466 kts | 75° |
| 2026-05-07 21:57 | 33.39492 | 136.56247 | 40900 ft | 466 kts | 75° |
| 2026-05-07 21:57 | 33.41069 | 136.63763 | 40903 ft | 465 kts | 75° |
| 2026-05-07 21:58 | 33.42642 | 136.71278 | 40903 ft | 465 kts | 75° |
| 2026-05-07 21:58 | 33.44209 | 136.78790 | 40900 ft | 465 kts | 75° |
| 2026-05-07 21:59 | 33.45770 | 136.86297 | 40901 ft | 464 kts | 76° |
| 2026-05-07 21:59 | 33.47325 | 136.93801 | 40899 ft | 464 kts | 76° |
| 2026-05-07 22:00 | 33.48874 | 137.01304 | 40901 ft | 464 kts | 76° |
| 2026-05-07 22:00 | 33.50407 | 137.08749 | 40901 ft | 463 kts | 76° |
| 2026-05-07 22:01 | 33.51946 | 137.16250 | 40904 ft | 463 kts | 76° |
| 2026-05-07 22:01 | 33.53478 | 137.23744 | 40900 ft | 463 kts | 76° |
| 2026-05-07 22:02 | 33.55007 | 137.31244 | 40903 ft | 463 kts | 76° |
| 2026-05-07 22:02 | 33.56529 | 137.38738 | 40903 ft | 463 kts | 76° |
| 2026-05-07 22:03 | 33.58048 | 137.46239 | 40903 ft | 463 kts | 76° |
| 2026-05-07 22:03 | 33.59560 | 137.53729 | 40901 ft | 462 kts | 76° |
| 2026-05-07 22:04 | 33.61196 | 137.61185 | 40902 ft | 462 kts | 69° |
| 2026-05-07 22:04 | 33.63951 | 137.68124 | 40902 ft | 461 kts | 59° |
| 2026-05-07 22:05 | 33.67045 | 137.74862 | 40903 ft | 461 kts | 58° |
| 2026-05-07 22:05 | 33.70181 | 137.81571 | 40903 ft | 461 kts | 58° |
| 2026-05-07 22:06 | 33.73291 | 137.88309 | 40906 ft | 461 kts | 59° |
| 2026-05-07 22:06 | 33.76374 | 137.95060 | 40904 ft | 461 kts | 59° |
| 2026-05-07 22:07 | 33.79446 | 138.01820 | 40905 ft | 461 kts | 59° |
| 2026-05-07 22:07 | 33.82209 | 138.07907 | 40905 ft | 460 kts | 59° |
| 2026-05-07 22:08 | 33.85253 | 138.14624 | 40904 ft | 460 kts | 59° |
| 2026-05-07 22:08 | 33.88314 | 138.21389 | 40902 ft | 460 kts | 59° |
| 2026-05-07 22:09 | 33.91371 | 138.28160 | 40898 ft | 460 kts | 59° |
| 2026-05-07 22:09 | 33.92916 | 138.31587 | 40720 ft | 472 kts | 59° |
| 2026-05-07 22:09 | 33.94493 | 138.35110 | 40594 ft | 484 kts | 59° |
| 2026-05-07 22:10 | 33.96102 | 138.38717 | 40410 ft | 489 kts | 59° |
| 2026-05-07 22:10 | 33.97708 | 138.42329 | 39741 ft | 492 kts | 59° |
| 2026-05-07 22:10 | 33.99339 | 138.46000 | 38916 ft | 500 kts | 60° |
| 2026-05-07 22:10 | 34.00991 | 138.49719 | 38011 ft | 507 kts | 60° |
| 2026-05-07 22:11 | 34.02664 | 138.53487 | 37055 ft | 513 kts | 60° |
| 2026-05-07 22:11 | 34.04356 | 138.57299 | 36143 ft | 518 kts | 60° |
| 2026-05-07 22:11 | 34.06060 | 138.61146 | 35308 ft | 522 kts | 60° |
| 2026-05-07 22:11 | 34.07775 | 138.65021 | 34467 ft | 525 kts | 60° |
| 2026-05-07 22:12 | 34.09499 | 138.68923 | 33505 ft | 530 kts | 60° |
| 2026-05-07 22:12 | 34.11232 | 138.72852 | 32487 ft | 533 kts | 60° |
| 2026-05-07 22:12 | 34.12977 | 138.76820 | 31491 ft | 536 kts | 61° |
| 2026-05-07 22:12 | 34.14728 | 138.80808 | 30576 ft | 537 kts | 61° |
| 2026-05-07 22:13 | 34.16466 | 138.84776 | 29899 ft | 532 kts | 61° |
| 2026-05-07 22:13 | 34.18188 | 138.88711 | 29131 ft | 528 kts | 61° |
| 2026-05-07 22:13 | 34.19895 | 138.92612 | 28417 ft | 522 kts | 61° |
| 2026-05-07 22:13 | 34.21583 | 138.96475 | 27724 ft | 517 kts | 61° |
| 2026-05-07 22:14 | 34.23250 | 139.00295 | 27048 ft | 512 kts | 61° |
| 2026-05-07 22:14 | 34.24904 | 139.04078 | 26367 ft | 507 kts | 61° |
| 2026-05-07 22:14 | 34.26543 | 139.07831 | 25677 ft | 502 kts | 62° |
| 2026-05-07 22:14 | 34.28139 | 139.11563 | 24976 ft | 498 kts | 64° |
| 2026-05-07 22:15 | 34.29563 | 139.15366 | 24316 ft | 494 kts | 66° |
| 2026-05-07 22:15 | 34.30919 | 139.19163 | 23650 ft | 490 kts | 67° |
| 2026-05-07 22:15 | 34.32231 | 139.22942 | 22894 ft | 485 kts | 68° |
| 2026-05-07 22:15 | 34.33511 | 139.26685 | 22179 ft | 478 kts | 68° |
| 2026-05-07 22:16 | 34.34346 | 139.29137 | 21733 ft | 474 kts | 68° |
| 2026-05-07 22:16 | 34.35595 | 139.32804 | 21065 ft | 469 kts | 68° |
| 2026-05-07 22:16 | 34.36835 | 139.36438 | 20367 ft | 465 kts | 68° |
| 2026-05-07 22:16 | 34.38063 | 139.40031 | 19685 ft | 461 kts | 68° |
| 2026-05-07 22:17 | 34.39287 | 139.43606 | 19001 ft | 457 kts | 68° |
| 2026-05-07 22:17 | 34.40499 | 139.47147 | 18308 ft | 453 kts | 68° |
| 2026-05-07 22:17 | 34.41701 | 139.50657 | 17559 ft | 449 kts | 68° |
| 2026-05-07 22:17 | 34.42890 | 139.54128 | 16854 ft | 443 kts | 68° |
| 2026-05-07 22:18 | 34.44061 | 139.57554 | 16171 ft | 438 kts | 68° |
| 2026-05-07 22:18 | 34.46363 | 139.64292 | 14823 ft | 428 kts | 69° |
| 2026-05-07 22:18 | 34.47495 | 139.67606 | 14164 ft | 424 kts | 68° |
| 2026-05-07 22:19 | 34.48913 | 139.70645 | 13767 ft | 414 kts | 53° |
| 2026-05-07 22:19 | 34.50945 | 139.73039 | 13628 ft | 393 kts | 36° |
| 2026-05-07 22:19 | 34.53152 | 139.74860 | 13493 ft | 375 kts | 30° |
| 2026-05-07 22:19 | 34.55290 | 139.76466 | 13348 ft | 358 kts | 29° |
| 2026-05-07 22:20 | 34.57376 | 139.78004 | 13211 ft | 344 kts | 28° |
| 2026-05-07 22:20 | 34.59380 | 139.79478 | 13072 ft | 331 kts | 28° |
| 2026-05-07 22:20 | 34.61311 | 139.80900 | 12943 ft | 319 kts | 28° |
| 2026-05-07 22:20 | 34.63183 | 139.82279 | 12724 ft | 312 kts | 28° |
| 2026-05-07 22:21 | 34.65034 | 139.83642 | 12445 ft | 310 kts | 28° |
| 2026-05-07 22:21 | 34.66865 | 139.85023 | 12140 ft | 309 kts | 32° |
| 2026-05-07 22:21 | 34.68375 | 139.86864 | 11899 ft | 309 kts | 54° |
| 2026-05-07 22:21 | 34.69535 | 139.89086 | 11708 ft | 313 kts | 59° |
| 2026-05-07 22:22 | 34.70625 | 139.91369 | 11513 ft | 312 kts | 60° |
| 2026-05-07 22:22 | 34.71706 | 139.93647 | 11316 ft | 311 kts | 60° |
| 2026-05-07 22:22 | 34.72787 | 139.95913 | 11127 ft | 309 kts | 59° |
| 2026-05-07 22:22 | 34.73867 | 139.98166 | 10926 ft | 308 kts | 59° |
| 2026-05-07 22:23 | 34.74947 | 140.00410 | 10741 ft | 307 kts | 59° |
| 2026-05-07 22:23 | 34.76023 | 140.02644 | 10551 ft | 306 kts | 59° |
| 2026-05-07 22:23 | 34.77096 | 140.04872 | 10365 ft | 305 kts | 59° |
| 2026-05-07 22:23 | 34.78166 | 140.07093 | 10171 ft | 304 kts | 59° |
| 2026-05-07 22:24 | 34.79233 | 140.09307 | 9982 ft | 303 kts | 59° |
| 2026-05-07 22:24 | 34.80295 | 140.11513 | 9796 ft | 301 kts | 59° |
| 2026-05-07 22:24 | 34.81349 | 140.13709 | 9609 ft | 300 kts | 59° |
| 2026-05-07 22:24 | 34.82400 | 140.15895 | 9392 ft | 299 kts | 59° |
| 2026-05-07 22:25 | 34.83449 | 140.18075 | 9228 ft | 298 kts | 59° |
| 2026-05-07 22:25 | 34.84493 | 140.20245 | 9024 ft | 296 kts | 59° |
| 2026-05-07 22:25 | 34.85548 | 140.22385 | 8854 ft | 293 kts | 56° |
| 2026-05-07 22:25 | 34.86977 | 140.24112 | 8665 ft | 289 kts | 27° |
| 2026-05-07 22:26 | 34.88854 | 140.24762 | 8498 ft | 278 kts | 359° |
| 2026-05-07 22:26 | 34.90779 | 140.24729 | 8318 ft | 275 kts | 351° |
| 2026-05-07 22:26 | 34.92684 | 140.24560 | 8152 ft | 274 kts | 349° |
| 2026-05-07 22:26 | 34.94588 | 140.24392 | 7972 ft | 274 kts | 350° |
| 2026-05-07 22:27 | 34.96482 | 140.24248 | 7807 ft | 273 kts | 351° |
| 2026-05-07 22:27 | 34.98374 | 140.24122 | 7641 ft | 272 kts | 351° |
| 2026-05-07 22:27 | 35.00261 | 140.24006 | 7474 ft | 271 kts | 352° |
| 2026-05-07 22:27 | 35.02147 | 140.23897 | 7287 ft | 271 kts | 352° |
| 2026-05-07 22:28 | 35.04026 | 140.23791 | 7133 ft | 270 kts | 352° |
| 2026-05-07 22:28 | 35.05897 | 140.23688 | 6972 ft | 268 kts | 352° |
| 2026-05-07 22:28 | 35.07764 | 140.23585 | 6949 ft | 269 kts | 352° |
| 2026-05-07 22:28 | 35.09628 | 140.23483 | 6957 ft | 268 kts | 352° |
| 2026-05-07 22:29 | 35.11491 | 140.23380 | 6952 ft | 268 kts | 352° |
| 2026-05-07 22:29 | 35.13355 | 140.23277 | 6948 ft | 268 kts | 352° |
| 2026-05-07 22:29 | 35.15225 | 140.23174 | 6959 ft | 268 kts | 352° |
| 2026-05-07 22:29 | 35.17091 | 140.23075 | 6972 ft | 268 kts | 353° |
| 2026-05-07 22:30 | 35.18955 | 140.22977 | 6960 ft | 268 kts | 352° |
| 2026-05-07 22:30 | 35.20819 | 140.22875 | 6963 ft | 268 kts | 352° |
| 2026-05-07 22:30 | 35.22659 | 140.22771 | 6962 ft | 269 kts | 352° |
| 2026-05-07 22:30 | 35.24550 | 140.22666 | 6955 ft | 268 kts | 352° |
| 2026-05-07 22:31 | 35.26387 | 140.22562 | 6957 ft | 268 kts | 352° |
| 2026-05-07 22:31 | 35.28256 | 140.22456 | 6955 ft | 269 kts | 352° |
| 2026-05-07 22:31 | 35.30122 | 140.22355 | 6958 ft | 268 kts | 352° |
| 2026-05-07 22:31 | 35.31984 | 140.22259 | 6959 ft | 268 kts | 352° |
| 2026-05-07 22:32 | 35.33844 | 140.22156 | 6957 ft | 267 kts | 352° |
| 2026-05-07 22:32 | 35.35703 | 140.22052 | 6962 ft | 268 kts | 352° |
| 2026-05-07 22:32 | 35.37571 | 140.21948 | 6957 ft | 268 kts | 352° |
| 2026-05-07 22:32 | 35.39429 | 140.21801 | 6953 ft | 267 kts | 349° |
| 2026-05-07 22:33 | 35.41275 | 140.21599 | 6953 ft | 267 kts | 349° |
| 2026-05-07 22:33 | 35.43120 | 140.21395 | 6956 ft | 266 kts | 349° |
| 2026-05-07 22:33 | 35.44966 | 140.21196 | 6954 ft | 266 kts | 349° |
| 2026-05-07 22:33 | 35.46809 | 140.21000 | 6954 ft | 266 kts | 349° |
| 2026-05-07 22:34 | 35.48655 | 140.20806 | 6956 ft | 266 kts | 349° |
| 2026-05-07 22:34 | 35.50498 | 140.20616 | 6955 ft | 266 kts | 349° |
| 2026-05-07 22:34 | 35.52340 | 140.20423 | 6958 ft | 266 kts | 348° |
| 2026-05-07 22:34 | 35.54150 | 140.20030 | 6920 ft | 263 kts | 341° |
| 2026-05-07 22:35 | 35.55905 | 140.19459 | 6636 ft | 260 kts | 338° |
| 2026-05-07 22:35 | 35.57605 | 140.18802 | 6439 ft | 249 kts | 332° |
| 2026-05-07 22:35 | 35.58946 | 140.17626 | 6269 ft | 230 kts | 305° |
| 2026-05-07 22:35 | 35.59834 | 140.16027 | 5941 ft | 226 kts | 295° |
| 2026-05-07 22:36 | 35.60481 | 140.14267 | 5505 ft | 226 kts | 280° |
| 2026-05-07 22:36 | 35.60629 | 140.12361 | 5129 ft | 224 kts | 267° |
| 2026-05-07 22:36 | 35.60594 | 140.10479 | 4983 ft | 214 kts | 264° |
| 2026-05-07 22:36 | 35.60500 | 140.08701 | 4971 ft | 211 kts | 264° |
| 2026-05-07 22:37 | 35.60476 | 140.06888 | 4948 ft | 213 kts | 266° |
| 2026-05-07 22:37 | 35.60471 | 140.05071 | 4686 ft | 213 kts | 266° |
| 2026-05-07 22:37 | 35.60458 | 140.03239 | 4300 ft | 216 kts | 266° |
| 2026-05-07 22:37 | 35.60445 | 140.01383 | 3933 ft | 218 kts | 266° |
| 2026-05-07 22:38 | 35.60436 | 139.99526 | 3593 ft | 216 kts | 266° |
| 2026-05-07 22:38 | 35.60433 | 139.97736 | 3239 ft | 203 kts | 267° |
| 2026-05-07 22:38 | 35.60432 | 139.96048 | 2910 ft | 191 kts | 267° |
| 2026-05-07 22:38 | 35.60429 | 139.94479 | 2584 ft | 177 kts | 266° |
| 2026-05-07 22:39 | 35.60424 | 139.93037 | 2302 ft | 162 kts | 266° |
| 2026-05-07 22:39 | 35.60418 | 139.91677 | 2063 ft | 155 kts | 266° |
| 2026-05-07 22:39 | 35.60414 | 139.90387 | 1799 ft | 146 kts | 266° |
| 2026-05-07 22:39 | 35.60409 | 139.89170 | 1543 ft | 139 kts | 266° |
| 2026-05-07 22:40 | 35.60405 | 139.88008 | 1283 ft | 133 kts | 267° |
| 2026-05-07 22:40 | 35.60392 | 139.86901 | 1075 ft | 125 kts | 266° |
| 2026-05-07 22:40 | 35.60382 | 139.85864 | 935 ft | 120 kts | 266° |
| 2026-05-07 22:40 | 35.60369 | 139.84851 | 882 ft | 119 kts | 266° |
| 2026-05-07 22:41 | 35.60355 | 139.83827 | 932 ft | 121 kts | 267° |
| 2026-05-07 22:41 | 35.60309 | 139.82788 | 867 ft | 121 kts | 259° |
| 2026-05-07 22:41 | 35.60040 | 139.81818 | 784 ft | 120 kts | 242° |
| 2026-05-07 22:41 | 35.59618 | 139.80923 | 693 ft | 122 kts | 237° |
| 2026-05-07 22:42 | 35.59129 | 139.80079 | 614 ft | 122 kts | 230° |
| 2026-05-07 22:42 | 35.58560 | 139.79333 | 483 ft | 118 kts | 219° |
| 2026-05-07 22:42 | 35.57918 | 139.78709 | 360 ft | 118 kts | 213° |
| 2026-05-07 22:42 | 35.57245 | 139.78131 | 214 ft | 118 kts | 213° |
| 2026-05-07 22:43 | 35.56572 | 139.77561 | 56 ft | 116 kts | 212° |
| 2026-05-07 22:43 | 35.55945 | 139.77028 | 128 ft | 111 kts | 213° |
| 2026-05-07 22:43 | 35.55146 | 139.76386 | 503 ft | 159 kts | 211° |
| 2026-05-07 22:43 | 35.54786 | 139.76109 | 666 ft | 171 kts | 211° |
| 2026-05-07 22:44 | 35.53874 | 139.75171 | 1326 ft | 175 kts | 232° |
| 2026-05-07 22:44 | 35.53278 | 139.73793 | 1933 ft | 191 kts | 246° |
| 2026-05-07 22:44 | 35.53113 | 139.72225 | 2111 ft | 191 kts | 276° |
| 2026-05-07 22:44 | 35.53776 | 139.70754 | 1942 ft | 207 kts | 316° |
| 2026-05-07 22:45 | 35.55112 | 139.70174 | 1931 ft | 210 kts | 0° |
| 2026-05-07 22:45 | 35.56611 | 139.70615 | 2279 ft | 238 kts | 17° |
| 2026-05-07 22:45 | 35.58237 | 139.71297 | 3038 ft | 246 kts | 16° |
| 2026-05-07 22:45 | 35.59819 | 139.71941 | 3635 ft | 236 kts | 15° |
| 2026-05-07 22:46 | 35.61375 | 139.72557 | 3924 ft | 235 kts | 14° |
| 2026-05-07 22:46 | 35.62935 | 139.73156 | 3977 ft | 235 kts | 14° |
| 2026-05-07 22:46 | 35.64505 | 139.73740 | 3974 ft | 236 kts | 13° |
| 2026-05-07 22:46 | 35.66082 | 139.74307 | 3974 ft | 236 kts | 13° |
| 2026-05-07 22:47 | 35.67666 | 139.74857 | 3973 ft | 236 kts | 12° |
| 2026-05-07 22:47 | 35.69251 | 139.75388 | 3977 ft | 236 kts | 12° |
| 2026-05-07 22:47 | 35.70735 | 139.76272 | 3981 ft | 246 kts | 38° |
| 2026-05-07 22:47 | 35.71796 | 139.77973 | 3984 ft | 258 kts | 65° |
| 2026-05-07 22:48 | 35.72258 | 139.80110 | 3986 ft | 259 kts | 83° |
| 2026-05-07 22:48 | 35.72340 | 139.82318 | 3981 ft | 258 kts | 90° |
| 2026-05-07 22:48 | 35.72337 | 139.84530 | 3979 ft | 258 kts | 91° |
| 2026-05-07 22:48 | 35.72326 | 139.86740 | 3977 ft | 258 kts | 91° |
| 2026-05-07 22:49 | 35.72316 | 139.88921 | 4163 ft | 259 kts | 91° |
| 2026-05-07 22:49 | 35.72307 | 139.91147 | 4529 ft | 261 kts | 91° |
| 2026-05-07 22:49 | 35.72297 | 139.93386 | 4895 ft | 262 kts | 91° |
| 2026-05-07 22:49 | 35.72293 | 139.95653 | 5255 ft | 255 kts | 92° |
| 2026-05-07 22:50 | 35.72253 | 139.97724 | 5293 ft | 239 kts | 93° |
| 2026-05-07 22:50 | 35.72186 | 139.99812 | 5129 ft | 250 kts | 94° |
| 2026-05-07 22:50 | 35.72114 | 140.01976 | 5009 ft | 254 kts | 94° |
| 2026-05-07 22:50 | 35.72043 | 140.04149 | 4978 ft | 255 kts | 94° |
| 2026-05-07 22:51 | 35.71972 | 140.06329 | 4972 ft | 255 kts | 94° |
| 2026-05-07 22:51 | 35.71902 | 140.08507 | 4968 ft | 255 kts | 94° |
| 2026-05-07 22:51 | 35.71820 | 140.10683 | 4979 ft | 254 kts | 96° |
| 2026-05-07 22:51 | 35.71468 | 140.12801 | 4966 ft | 252 kts | 114° |
| 2026-05-07 22:52 | 35.70446 | 140.14467 | 4971 ft | 242 kts | 148° |
| 2026-05-07 22:52 | 35.68964 | 140.15380 | 4979 ft | 237 kts | 162° |
| 2026-05-07 22:52 | 35.67415 | 140.16071 | 4969 ft | 236 kts | 164° |
| 2026-05-07 22:52 | 35.65861 | 140.16733 | 4967 ft | 236 kts | 164° |
| 2026-05-07 22:53 | 35.64278 | 140.17160 | 4961 ft | 231 kts | 184° |
| 2026-05-07 22:53 | 35.62826 | 140.16565 | 4964 ft | 215 kts | 219° |
| 2026-05-07 22:53 | 35.61910 | 140.15176 | 4970 ft | 208 kts | 237° |
| 2026-05-07 22:53 | 35.61192 | 140.13637 | 4970 ft | 207 kts | 240° |
| 2026-05-07 22:54 | 35.60589 | 140.12032 | 4965 ft | 209 kts | 253° |
| 2026-05-07 22:54 | 35.60423 | 140.10258 | 4965 ft | 210 kts | 265° |
| 2026-05-07 22:54 | 35.60419 | 140.08467 | 4945 ft | 210 kts | 267° |
| 2026-05-07 22:54 | 35.60451 | 140.06677 | 4716 ft | 209 kts | 268° |
| 2026-05-07 22:55 | 35.60466 | 140.04895 | 4415 ft | 208 kts | 266° |
| 2026-05-07 22:55 | 35.60447 | 140.03116 | 4110 ft | 208 kts | 265° |
| 2026-05-07 22:55 | 35.60429 | 140.01339 | 3817 ft | 208 kts | 266° |
| 2026-05-07 22:55 | 35.60426 | 139.99566 | 3521 ft | 208 kts | 266° |
| 2026-05-07 22:56 | 35.60430 | 139.97793 | 3227 ft | 206 kts | 266° |
| 2026-05-07 22:56 | 35.60432 | 139.96103 | 2955 ft | 189 kts | 266° |
| 2026-05-07 22:56 | 35.60430 | 139.94536 | 2637 ft | 178 kts | 266° |
| 2026-05-07 22:56 | 35.60424 | 139.93073 | 2312 ft | 166 kts | 266° |
| 2026-05-07 22:57 | 35.60417 | 139.91698 | 2028 ft | 162 kts | 266° |
| 2026-05-07 22:57 | 35.60411 | 139.90299 | 1752 ft | 161 kts | 267° |
| 2026-05-07 22:57 | 35.60408 | 139.88961 | 1475 ft | 155 kts | 267° |
| 2026-05-07 22:57 | 35.60403 | 139.87655 | 1163 ft | 152 kts | 267° |
| 2026-05-07 22:58 | 35.60399 | 139.86373 | 981 ft | 144 kts | 268° |
| 2026-05-07 22:58 | 35.60392 | 139.85220 | 875 ft | 126 kts | 267° |
| 2026-05-07 22:58 | 35.60368 | 139.84174 | 799 ft | 120 kts | 266° |
| 2026-05-07 22:58 | 35.60327 | 139.83146 | 786 ft | 121 kts | 265° |
| 2026-05-07 22:59 | 35.60250 | 139.82116 | 744 ft | 121 kts | 261° |
| 2026-05-07 22:59 | 35.59966 | 139.81140 | 697 ft | 121 kts | 241° |
| 2026-05-07 22:59 | 35.59483 | 139.80289 | 648 ft | 122 kts | 230° |
| 2026-05-07 22:59 | 35.58881 | 139.79563 | 556 ft | 120 kts | 218° |
| 2026-05-07 23:00 | 35.58219 | 139.78956 | 430 ft | 119 kts | 213° |
| 2026-05-07 23:00 | 35.57527 | 139.78374 | 293 ft | 119 kts | 213° |
| 2026-05-07 23:00 | 35.56861 | 139.77807 | 108 ft | 117 kts | 213° |
| 2026-05-07 23:00 | 35.56213 | 139.77259 | 41 ft | 103 kts | 214° |
| 2026-05-07 23:01 | 35.55723 | 139.76834 | 33 ft | 75 kts | 214° |
| 2026-05-07 23:01 | 35.55455 | 139.76604 | 32 ft | 34 kts | 214° |
| 2026-05-07 23:01 | 35.55254 | 139.76477 | 31 ft | 32 kts | 193° |
| 2026-05-07 23:01 | 35.55084 | 139.76481 | 31 ft | 19 kts | 131° |
| 2026-05-07 23:02 | 35.55002 | 139.76613 | 29 ft | 17 kts | 146° |
| 2026-05-07 23:02 | 35.54944 | 139.76699 | 30 ft | 9 kts | 135° |
| 2026-05-07 23:02 | 35.54922 | 139.76721 | 29 ft | 1 kts | 142° |
| 2026-05-07 23:02 | 35.54897 | 139.76740 | 29 ft | 7 kts | 148° |
| 2026-05-07 23:03 | 35.54886 | 139.76748 | 29 ft | 0 kts | 149° |